createdAt,value
2022-10-12T00:00:11.682Z,15.32
2022-10-12T00:03:08.583Z,11.60
2022-10-12T00:05:41.581Z,13.38
2022-10-12T00:08:14.210Z,12.63
2022-10-12T00:10:47.032Z,10.25
2022-10-12T00:13:19.803Z,15.27
2022-10-12T00:15:52.705Z,13.50
2022-10-12T00:18:25.192Z,16.85
2022-10-12T00:21:02.063Z,14.32
2022-10-12T00:23:35.179Z,14.13
2022-10-12T00:26:09.073Z,7.38
2022-10-12T00:28:41.865Z,14.23
2022-10-12T00:31:16.623Z,13.67
2022-10-12T00:33:49.597Z,10.82
2022-10-12T00:36:27.029Z,8.52
2022-10-12T00:39:00.173Z,10.10
2022-10-12T00:41:34.633Z,12.77
2022-10-12T00:44:25.774Z,9.45
2022-10-12T00:46:59.337Z,9.40
2022-10-12T00:49:33.623Z,9.55
2022-10-12T00:52:09.278Z,10.05
2022-10-12T00:54:45.780Z,13.35
2022-10-12T00:57:20.032Z,15.85
2022-10-12T00:59:55.123Z,10.07
2022-10-12T01:02:29.838Z,11.05
2022-10-12T01:05:03.163Z,8.53
2022-10-12T01:07:36.483Z,8.75
2022-10-12T01:10:09.761Z,10.57
2022-10-12T01:12:43.471Z,10.85
2022-10-12T01:15:16.460Z,10.65
2022-10-12T01:17:49.735Z,5.37
2022-10-12T01:20:45.822Z,9.10
2022-10-12T01:23:19.016Z,5.57
2022-10-12T01:26:09.936Z,7.40
2022-10-12T01:28:43.397Z,7.90
2022-10-12T01:31:20.946Z,6.10
2022-10-12T01:34:16.657Z,6.45
2022-10-12T01:36:52.379Z,5.97
2022-10-12T01:39:51.396Z,10.90
2022-10-12T01:42:32.466Z,14.17
2022-10-12T01:45:06.392Z,7.75
2022-10-12T01:47:40.175Z,8.18
2022-10-12T01:50:14.625Z,7.13
2022-10-12T01:52:56.177Z,8.75
2022-10-12T01:55:31.670Z,9.80
2022-10-12T01:58:04.357Z,8.80
2022-10-12T02:00:53.799Z,6.63
2022-10-12T02:03:29.606Z,7.78
2022-10-12T02:06:22.013Z,6.23
2022-10-12T02:09:04.213Z,6.45
2022-10-12T02:11:39.671Z,9.15
2022-10-12T02:14:20.042Z,8.90
2022-10-12T02:17:04.921Z,9.27
2022-10-12T02:19:40.275Z,13.00
2022-10-12T02:22:13.492Z,9.75
2022-10-12T02:24:47.728Z,9.70
2022-10-12T02:27:21.708Z,13.32
2022-10-12T02:29:54.361Z,11.70
2022-10-12T02:32:35.992Z,9.75
2022-10-12T02:35:11.705Z,8.65
2022-10-12T02:37:54.438Z,9.73
2022-10-12T02:40:32.500Z,11.88
2022-10-12T02:43:10.774Z,9.47
2022-10-12T02:45:45.365Z,11.30
2022-10-12T02:48:20.799Z,10.88
2022-10-12T02:50:55.050Z,13.18
2022-10-12T02:53:29.498Z,12.38
2022-10-12T02:56:06.403Z,10.68
2022-10-12T02:58:39.788Z,12.75
2022-10-12T03:01:12.518Z,9.90
2022-10-12T03:03:46.404Z,11.77
2022-10-12T03:06:20.453Z,13.90
2022-10-12T03:08:53.733Z,11.90
2022-10-12T03:11:26.318Z,12.95
2022-10-12T03:13:59.175Z,12.60
2022-10-12T03:16:31.627Z,9.88
2022-10-12T03:19:05.721Z,8.45
2022-10-12T03:21:38.696Z,13.53
2022-10-12T03:24:11.750Z,11.60
2022-10-12T03:26:44.326Z,14.82
2022-10-12T03:29:17.181Z,8.73
2022-10-12T03:31:49.676Z,12.48
2022-10-12T03:34:22.588Z,9.73
2022-10-12T03:36:55.162Z,12.55
2022-10-12T03:39:28.023Z,12.43
2022-10-12T03:42:00.546Z,12.55
2022-10-12T03:44:33.476Z,10.27
2022-10-12T03:47:05.989Z,9.88
2022-10-12T03:49:38.888Z,11.77
2022-10-12T03:52:11.386Z,9.38
2022-10-12T03:54:44.384Z,9.05
2022-10-12T03:57:16.946Z,7.03
2022-10-12T03:59:49.956Z,11.40
2022-10-12T04:02:22.440Z,6.90
2022-10-12T04:04:55.284Z,7.75
2022-10-12T04:07:27.928Z,10.50
2022-10-12T04:10:00.781Z,9.13
2022-10-12T04:12:33.641Z,9.73
2022-10-12T04:15:06.956Z,8.45
2022-10-12T04:17:39.855Z,9.93
2022-10-12T04:20:13.157Z,16.00
2022-10-12T04:22:46.753Z,8.77
2022-10-12T04:25:19.862Z,10.55
2022-10-12T04:27:52.707Z,11.70
2022-10-12T04:30:25.609Z,9.82
2022-10-12T04:32:58.008Z,9.23
2022-10-12T04:35:31.133Z,11.52
2022-10-12T04:38:03.951Z,13.32
2022-10-12T04:40:36.735Z,8.63
2022-10-12T04:43:09.182Z,13.18
2022-10-12T04:45:41.978Z,11.13
2022-10-12T04:48:14.483Z,13.10
2022-10-12T04:50:47.311Z,10.85
2022-10-12T04:53:20.167Z,11.55
2022-10-12T04:55:52.922Z,12.32
2022-10-12T04:58:25.666Z,12.13
2022-10-12T05:00:58.515Z,13.87
2022-10-12T05:03:30.911Z,7.07
2022-10-12T05:06:03.853Z,6.75
2022-10-12T05:08:36.400Z,11.90
2022-10-12T05:11:09.230Z,9.95
2022-10-12T05:13:41.645Z,10.55
2022-10-12T05:16:14.538Z,10.70
2022-10-12T05:18:47.207Z,10.82
2022-10-12T05:21:20.199Z,11.10
2022-10-12T05:23:52.789Z,14.52
2022-10-12T05:26:26.113Z,11.13
2022-10-12T05:28:58.707Z,9.80
2022-10-12T05:31:31.852Z,11.50
2022-10-12T05:34:04.456Z,11.98
2022-10-12T05:36:37.623Z,14.82
2022-10-12T05:39:10.176Z,14.97
2022-10-12T05:41:42.987Z,12.07
2022-10-12T05:44:15.407Z,11.38
2022-10-12T05:46:48.482Z,8.95
2022-10-12T05:49:21.059Z,13.10
2022-10-12T05:51:58.000Z,8.82
2022-10-12T05:54:30.566Z,10.70
2022-10-12T05:57:03.528Z,8.38
2022-10-12T05:59:36.225Z,9.93
2022-10-12T06:02:13.289Z,17.85
2022-10-12T06:04:45.904Z,8.98
2022-10-12T06:07:18.797Z,14.13
2022-10-12T06:09:51.372Z,10.07
2022-10-12T06:12:24.637Z,12.00
2022-10-12T06:14:57.112Z,10.23
2022-10-12T06:17:30.002Z,13.23
2022-10-12T06:20:02.424Z,15.55
2022-10-12T06:22:35.979Z,22.85
2022-10-12T06:25:08.783Z,17.33
2022-10-12T06:27:41.855Z,27.15
2022-10-12T06:30:14.489Z,23.27
2022-10-12T06:32:47.376Z,17.57
2022-10-12T06:35:19.869Z,21.80
2022-10-12T06:37:53.069Z,15.67
2022-10-12T06:40:25.613Z,15.27
2022-10-12T06:43:02.902Z,13.85
2022-10-12T06:45:36.680Z,14.98
2022-10-12T06:48:09.817Z,12.00
2022-10-12T06:50:42.618Z,15.75
2022-10-12T06:53:15.561Z,19.45
2022-10-12T06:55:48.128Z,9.77
2022-10-12T06:58:21.105Z,18.38
2022-10-12T07:00:53.960Z,14.37
2022-10-12T07:03:27.189Z,18.38
2022-10-12T07:06:07.809Z,14.52
2022-10-12T07:08:41.607Z,10.20
2022-10-12T07:11:15.304Z,12.57
2022-10-12T07:13:48.082Z,17.73
2022-10-12T07:16:20.691Z,20.10
2022-10-12T07:18:53.611Z,12.30
2022-10-12T07:21:26.127Z,13.23
2022-10-12T07:23:58.975Z,10.23
2022-10-12T07:26:32.014Z,13.93
2022-10-12T07:29:04.953Z,18.23
2022-10-12T07:31:37.886Z,16.55
2022-10-12T07:34:10.708Z,10.07
2022-10-12T07:36:58.540Z,12.40
2022-10-12T07:39:32.246Z,16.53
2022-10-12T07:42:04.937Z,16.73
2022-10-12T07:44:37.948Z,15.83
2022-10-12T07:47:10.555Z,11.90
2022-10-12T07:49:43.435Z,13.47
2022-10-12T07:52:16.079Z,15.30
2022-10-12T07:54:49.135Z,14.18
2022-10-12T07:57:21.724Z,20.75
2022-10-12T07:59:54.637Z,57.03
2022-10-12T08:02:27.165Z,41.00
2022-10-12T08:05:00.014Z,14.70
2022-10-12T08:07:32.546Z,13.13
2022-10-12T08:10:05.798Z,15.13
2022-10-12T08:12:38.353Z,13.50
2022-10-12T08:15:11.466Z,21.65
2022-10-12T08:17:43.961Z,19.40
2022-10-12T08:20:16.817Z,10.93
2022-10-12T08:22:49.453Z,13.77
2022-10-12T08:25:22.346Z,10.73
2022-10-12T08:27:54.943Z,9.18
2022-10-12T08:30:27.886Z,10.63
2022-10-12T08:33:00.411Z,12.80
2022-10-12T08:35:33.346Z,14.27
2022-10-12T08:38:06.450Z,11.57
2022-10-12T08:40:51.036Z,13.60
2022-10-12T08:43:23.682Z,11.43
2022-10-12T08:46:01.174Z,15.53
2022-10-12T08:48:44.885Z,15.88
2022-10-12T08:51:23.019Z,13.65
2022-10-12T08:54:08.838Z,12.35
2022-10-12T08:56:41.966Z,14.38
2022-10-12T08:59:15.429Z,11.73
2022-10-12T09:01:57.362Z,12.02
2022-10-12T09:04:41.920Z,12.55
2022-10-12T09:07:14.973Z,12.32
2022-10-12T09:10:06.060Z,10.45
2022-10-12T09:12:51.669Z,11.50
2022-10-12T09:15:31.545Z,12.23
2022-10-12T09:18:06.843Z,16.63
2022-10-12T09:20:50.055Z,16.50
2022-10-12T09:23:27.334Z,11.38
2022-10-12T09:26:05.227Z,13.13
2022-10-12T09:28:40.989Z,11.63
2022-10-12T09:31:25.316Z,18.08
2022-10-12T09:33:59.564Z,15.15
2022-10-12T09:36:34.400Z,15.68
2022-10-12T09:39:29.313Z,13.93
2022-10-12T09:42:02.119Z,9.35
2022-10-12T09:44:45.138Z,9.23
2022-10-12T09:47:32.590Z,12.73
2022-10-12T09:50:06.489Z,5.80
2022-10-12T09:52:43.659Z,13.15
2022-10-12T09:55:16.664Z,11.60
2022-10-12T09:57:54.844Z,5.32
2022-10-12T10:00:32.444Z,5.30
2022-10-12T10:03:05.487Z,5.53
2022-10-12T10:05:38.955Z,5.32
2022-10-12T10:08:14.434Z,7.50
2022-10-12T10:10:54.221Z,6.75
2022-10-12T10:13:28.855Z,4.25
2022-10-12T10:16:20.953Z,9.10
2022-10-12T10:18:53.500Z,7.93
2022-10-12T10:21:34.332Z,9.90
2022-10-12T10:24:08.374Z,8.50
2022-10-12T10:27:00.774Z,12.00
2022-10-12T10:29:33.284Z,11.93
2022-10-12T10:32:24.595Z,7.25
2022-10-12T10:35:12.683Z,7.00
2022-10-12T10:37:46.967Z,6.65
2022-10-12T10:40:39.657Z,9.80
2022-10-12T10:43:44.720Z,5.47
2022-10-12T10:46:24.491Z,5.93
2022-10-12T10:49:01.647Z,4.18
2022-10-12T10:51:44.964Z,7.00
2022-10-12T10:54:24.230Z,4.10
2022-10-12T10:57:05.217Z,5.07
2022-10-12T11:00:14.110Z,6.63
2022-10-12T11:02:58.435Z,6.85
2022-10-12T11:05:36.487Z,6.30
2022-10-12T11:08:21.651Z,10.77
2022-10-12T11:11:15.032Z,7.30
2022-10-12T11:14:00.920Z,12.35
2022-10-12T11:16:36.363Z,6.40
2022-10-12T11:19:27.033Z,7.65
2022-10-12T11:22:02.942Z,4.95
2022-10-12T11:24:35.534Z,4.95
2022-10-12T11:27:31.404Z,3.28
2022-10-12T11:30:10.260Z,7.50
2022-10-12T11:32:51.929Z,4.38
2022-10-12T11:35:24.498Z,6.20
2022-10-12T11:38:20.287Z,7.47
2022-10-12T11:41:13.860Z,5.85
2022-10-12T11:43:59.327Z,6.03
2022-10-12T11:46:36.075Z,8.18
2022-10-12T11:49:17.226Z,5.90
2022-10-12T11:51:49.921Z,5.45
2022-10-12T11:54:27.779Z,5.15
2022-10-12T11:57:03.834Z,6.43
2022-10-12T11:59:42.787Z,6.25
2022-10-12T12:02:19.246Z,5.10
2022-10-12T12:04:53.118Z,3.58
2022-10-12T12:07:40.110Z,5.25
2022-10-12T12:10:28.311Z,3.30
2022-10-12T12:13:18.317Z,6.45
2022-10-12T12:15:54.480Z,4.47
2022-10-12T12:18:29.190Z,5.47
2022-10-12T12:21:04.251Z,3.63
2022-10-12T12:23:40.797Z,6.90
2022-10-12T12:26:18.325Z,6.75
2022-10-12T12:28:52.372Z,9.27
2022-10-12T12:31:25.153Z,6.40
2022-10-12T12:34:17.224Z,7.82
2022-10-12T12:36:53.379Z,7.07
2022-10-12T12:39:33.199Z,5.07
2022-10-12T12:42:08.001Z,6.28
2022-10-12T12:44:43.039Z,7.25
2022-10-12T12:47:45.013Z,6.13
2022-10-12T12:50:30.474Z,7.55
2022-10-12T12:53:06.393Z,6.77
2022-10-12T12:55:44.829Z,7.70
2022-10-12T12:58:27.045Z,9.13
2022-10-12T13:01:02.614Z,6.60
2022-10-12T13:03:41.532Z,7.53
2022-10-12T13:06:14.237Z,5.30
2022-10-12T13:08:57.685Z,9.07
2022-10-12T13:11:37.034Z,6.95
2022-10-12T13:14:22.008Z,7.47
2022-10-12T13:19:54.334Z,7.55
2022-10-12T13:22:28.604Z,7.50
2022-10-12T13:25:08.957Z,7.90
2022-10-12T13:27:45.820Z,4.53
2022-10-12T13:30:36.307Z,3.90
2022-10-12T13:33:14.542Z,7.40
2022-10-12T13:36:07.652Z,4.93
2022-10-12T13:38:40.638Z,4.45
2022-10-12T13:41:19.439Z,6.10
2022-10-12T13:43:53.696Z,4.72
2022-10-12T13:46:38.920Z,5.30
2022-10-12T13:49:30.264Z,4.88
2022-10-12T13:52:25.399Z,5.13
2022-10-12T13:55:01.727Z,4.63
2022-10-12T13:57:41.737Z,4.82
2022-10-12T14:00:14.351Z,5.05
2022-10-12T14:03:08.939Z,4.93
2022-10-12T14:05:45.590Z,6.85
2022-10-12T14:08:21.771Z,6.28
2022-10-12T14:10:57.841Z,5.30
2022-10-12T14:13:35.595Z,7.35
2022-10-12T14:16:08.532Z,4.65
2022-10-12T14:18:43.157Z,5.68
2022-10-12T14:21:25.758Z,4.45
2022-10-12T14:24:00.022Z,4.32
2022-10-12T14:26:47.867Z,7.35
2022-10-12T14:29:39.720Z,5.53
2022-10-12T14:32:12.696Z,7.40
2022-10-12T14:34:48.037Z,5.13
2022-10-12T14:37:24.423Z,5.07
2022-10-12T14:40:01.104Z,5.10
2022-10-12T14:42:35.577Z,5.75
2022-10-12T14:45:22.029Z,6.15
2022-10-12T14:47:54.786Z,3.85
2022-10-12T14:50:28.680Z,5.70
2022-10-12T14:53:03.083Z,9.20
2022-10-12T14:55:36.119Z,5.78
2022-10-12T14:58:11.231Z,5.38
2022-10-12T15:00:44.401Z,3.87
2022-10-12T15:03:18.323Z,4.18
2022-10-12T15:05:51.136Z,5.72
2022-10-12T15:08:23.871Z,5.50
2022-10-12T15:10:56.694Z,3.38
2022-10-12T15:13:29.189Z,3.53
2022-10-12T15:16:02.099Z,5.05
2022-10-12T15:18:34.649Z,4.28
2022-10-12T15:21:08.713Z,3.03
2022-10-12T15:23:41.334Z,4.07
2022-10-12T15:26:15.353Z,4.70
2022-10-12T15:28:48.110Z,2.80
2022-10-12T15:31:51.152Z,3.88
2022-10-12T15:34:37.691Z,7.72
2022-10-12T15:37:13.889Z,2.78
2022-10-12T15:39:46.748Z,7.65
2022-10-12T15:42:19.643Z,7.68
2022-10-12T15:44:52.367Z,4.87
2022-10-12T15:47:25.328Z,4.40
2022-10-12T15:49:57.912Z,5.28
2022-10-12T15:52:30.787Z,15.05
2022-10-12T15:55:03.357Z,8.00
2022-10-12T15:57:36.305Z,9.20
2022-10-12T16:00:09.529Z,9.63
2022-10-12T16:02:45.073Z,15.93
2022-10-12T16:05:17.572Z,11.17
2022-10-12T16:07:50.684Z,9.32
2022-10-12T16:10:24.559Z,10.13
2022-10-12T16:12:58.331Z,10.80
2022-10-12T16:15:31.996Z,11.43
2022-10-12T16:18:05.710Z,14.02
2022-10-12T16:20:39.652Z,11.43
2022-10-12T16:23:15.103Z,11.20
2022-10-12T16:25:47.825Z,11.10
2022-10-12T16:28:21.675Z,20.30
2022-10-12T16:30:56.498Z,26.38
2022-10-12T16:33:29.399Z,21.05
2022-10-12T16:36:07.336Z,21.52
2022-10-12T16:38:40.560Z,25.63
2022-10-12T16:41:14.338Z,22.38
2022-10-12T16:43:47.389Z,34.33
2022-10-12T16:46:19.880Z,60.67
2022-10-12T16:48:52.814Z,33.97
2022-10-12T16:51:26.506Z,24.83
2022-10-12T16:53:59.640Z,11.52
2022-10-12T16:56:34.886Z,15.00
2022-10-12T16:59:11.338Z,24.83
2022-10-12T17:01:43.844Z,29.42
2022-10-12T17:04:16.908Z,34.87
2022-10-12T17:06:50.260Z,38.42
2022-10-12T17:09:23.163Z,28.55
2022-10-12T17:11:56.720Z,68.30
2022-10-12T17:14:29.998Z,46.15
2022-10-12T17:17:04.145Z,64.90
2022-10-12T17:19:41.135Z,38.78
2022-10-12T17:22:15.671Z,30.65
2022-10-12T17:24:48.721Z,20.10
2022-10-12T17:27:21.275Z,21.75
2022-10-12T17:29:55.237Z,23.73
2022-10-12T17:32:27.880Z,26.38
2022-10-12T17:35:00.765Z,22.00
2022-10-12T17:37:33.302Z,33.33
2022-10-12T17:40:06.876Z,40.22
2022-10-12T17:42:39.898Z,39.63
2022-10-12T17:45:14.767Z,38.97
2022-10-12T17:47:49.508Z,45.60
2022-10-12T17:50:23.164Z,30.42
2022-10-12T17:52:55.926Z,28.92
2022-10-12T17:55:47.522Z,27.30
2022-10-12T17:58:20.843Z,29.70
2022-10-12T18:00:53.814Z,64.78
2022-10-12T18:03:28.409Z,74.33
2022-10-12T18:06:05.545Z,85.20
2022-10-12T18:08:38.223Z,81.10
2022-10-12T18:11:12.142Z,106.35
2022-10-12T18:13:48.653Z,135.50
2022-10-12T18:16:29.240Z,101.40
2022-10-12T18:19:02.699Z,89.75
2022-10-12T18:21:36.151Z,64.28
2022-10-12T18:24:16.871Z,60.03
2022-10-12T18:26:50.055Z,74.40
2022-10-12T18:29:25.503Z,79.72
2022-10-12T18:31:58.423Z,74.43
2022-10-12T18:34:35.690Z,65.40
2022-10-12T18:37:09.466Z,58.00
2022-10-12T18:39:44.282Z,56.10
2022-10-12T18:42:17.639Z,55.42
2022-10-12T18:44:50.421Z,52.53
2022-10-12T18:47:24.514Z,50.50
2022-10-12T18:49:57.353Z,44.47
2022-10-12T18:52:30.350Z,51.38
2022-10-12T18:55:04.551Z,49.47
2022-10-12T18:57:39.960Z,53.20
2022-10-12T19:00:12.982Z,53.10
2022-10-12T19:02:46.157Z,50.38
2022-10-12T19:05:18.938Z,56.60
2022-10-12T19:07:51.885Z,63.58
2022-10-12T19:10:24.494Z,52.63
2022-10-12T19:12:59.009Z,47.35
2022-10-12T19:15:31.563Z,55.70
2022-10-12T19:18:05.183Z,55.20
2022-10-12T19:20:38.650Z,58.17
2022-10-12T19:23:11.522Z,50.33
2022-10-12T19:25:44.040Z,49.95
2022-10-12T19:28:16.945Z,53.65
2022-10-12T19:30:49.778Z,53.83
2022-10-12T19:33:22.622Z,53.65
2022-10-12T19:35:55.538Z,45.75
2022-10-12T19:38:28.966Z,44.38
2022-10-12T19:41:01.454Z,42.47
2022-10-12T19:43:34.836Z,45.63
2022-10-12T19:46:09.307Z,53.65
2022-10-12T19:48:45.293Z,74.43
2022-10-12T19:51:18.450Z,81.65
2022-10-12T19:53:55.552Z,74.50
2022-10-12T19:56:28.587Z,66.45
2022-10-12T19:59:01.478Z,73.57
2022-10-12T20:01:36.146Z,60.53
2022-10-12T20:04:12.209Z,64.35
2022-10-12T20:06:44.992Z,69.70
2022-10-12T20:09:17.964Z,66.47
2022-10-12T20:11:50.755Z,61.45
2022-10-12T20:14:23.718Z,56.80
2022-10-12T20:16:56.554Z,50.70
2022-10-12T20:19:29.476Z,51.70
2022-10-12T20:22:02.078Z,43.38
2022-10-12T20:24:34.997Z,46.53
2022-10-12T20:27:07.586Z,44.28
2022-10-12T20:29:41.806Z,49.22
2022-10-12T20:32:14.340Z,47.88
2022-10-12T20:34:48.600Z,55.10
2022-10-12T20:37:21.882Z,45.47
2022-10-12T20:39:54.730Z,51.50
2022-10-12T20:42:27.797Z,51.97
2022-10-12T20:45:01.300Z,51.53
2022-10-12T20:47:34.069Z,50.75
2022-10-12T20:50:07.318Z,50.63
2022-10-12T20:52:43.020Z,45.90
2022-10-12T20:55:15.980Z,63.00
2022-10-12T20:57:48.704Z,70.63
2022-10-12T21:00:21.787Z,62.38
2022-10-12T21:02:54.549Z,49.80
2022-10-12T21:05:27.690Z,45.60
2022-10-12T21:08:00.215Z,43.57
2022-10-12T21:10:36.739Z,45.60
2022-10-12T21:13:11.805Z,42.43
2022-10-12T21:15:50.340Z,42.23
2022-10-12T21:18:23.123Z,39.63
2022-10-12T21:20:58.301Z,37.75
2022-10-12T21:23:30.988Z,37.53
2022-10-12T21:26:11.273Z,37.55
2022-10-12T21:28:44.370Z,33.72
2022-10-12T21:31:17.666Z,35.00
2022-10-12T21:33:50.397Z,34.05
2022-10-12T21:36:24.323Z,39.65
2022-10-12T21:38:57.486Z,31.17
2022-10-12T21:41:31.154Z,34.85
2022-10-12T21:44:05.226Z,38.45
2022-10-12T21:46:39.684Z,34.07
2022-10-12T21:49:12.359Z,35.72
2022-10-12T21:51:45.449Z,34.90
2022-10-12T21:54:17.923Z,38.60
2022-10-12T21:56:50.745Z,35.83
2022-10-12T21:59:23.311Z,33.08
2022-10-12T22:01:56.504Z,32.40
2022-10-12T22:04:29.133Z,37.55
2022-10-12T22:07:02.041Z,34.72
2022-10-12T22:09:34.624Z,37.90
2022-10-12T22:12:07.639Z,31.83
2022-10-12T22:14:40.235Z,36.92
2022-10-12T22:17:13.021Z,41.03
2022-10-12T22:19:49.967Z,29.50
2022-10-12T22:22:22.954Z,33.92
2022-10-12T22:24:55.507Z,39.78
2022-10-12T22:27:29.390Z,31.55
2022-10-12T22:30:03.640Z,27.42
2022-10-12T22:32:37.653Z,36.40
2022-10-12T22:35:10.206Z,37.20
2022-10-12T22:37:43.083Z,35.80
2022-10-12T22:40:15.993Z,41.03
2022-10-12T22:42:48.809Z,30.15
2022-10-12T22:45:25.671Z,40.77
2022-10-12T22:48:00.695Z,36.17
2022-10-12T22:50:33.224Z,40.28
2022-10-12T22:53:06.410Z,39.05
2022-10-12T22:55:39.023Z,28.83
2022-10-12T22:58:12.191Z,23.00
2022-10-12T23:00:45.311Z,31.35
2022-10-12T23:03:18.254Z,26.77
2022-10-12T23:05:50.866Z,29.98
2022-10-12T23:08:23.765Z,24.70
2022-10-12T23:10:56.418Z,31.00
2022-10-12T23:13:36.627Z,26.88
2022-10-12T23:16:13.582Z,28.77
2022-10-12T23:18:47.142Z,31.13
2022-10-12T23:21:19.667Z,30.52
2022-10-12T23:23:53.685Z,28.05
2022-10-12T23:26:26.954Z,24.75
2022-10-12T23:29:00.486Z,26.55
2022-10-12T23:31:33.837Z,26.33
2022-10-12T23:34:07.203Z,26.05
2022-10-12T23:36:40.061Z,29.27
2022-10-12T23:39:13.078Z,27.65
2022-10-12T23:41:45.663Z,29.20
2022-10-12T23:44:18.500Z,30.75
2022-10-12T23:46:51.012Z,31.40
2022-10-12T23:49:24.272Z,29.85
2022-10-12T23:51:59.894Z,33.03
2022-10-12T23:54:32.786Z,35.40
2022-10-12T23:57:06.717Z,34.10
2022-10-12T23:59:46.939Z,32.15
